Aérodrome :
LOGIN :

S'inscrire | Disclaimer

   EN    FR    IT 

 










Légende :    VFR   VFR Marginal   IFR   IFR Intensif   IFR Très Intensif
Visi : 
Plafond : 
>= 8 km
>= 3000ft
5 à 8 km
1000 à 3000 ft
1500m à 5 km
500 à 1000 ft
800 à 1500m
200 à 500 ft
< 800m
< 200 ft
Symboles :   Orages  Brouillard  Fortes neiges  Fortes précipitations  Vent > 20 kt
SIGMETs :   Divers  Orages  Givrage  Turbulence  Onde Orograph.  Cendres Volcan.







- Altitude de l'aérodrome : 1302 ft
- Code IATA : GNB
- Voir les cartes d'approche


LFLS - Grenoble / St. Geoirs

DERNIER METAR :
  • 301030Z AUTO 06004KT 020V110 9999 NSC 18/07 Q1025 NOSIG

METARs EXPIRÉS :
  • 301000Z AUTO 11003KT 070V170 9999 NSC 18/06 Q1025 NOSIG
  • 300930Z AUTO 09005KT 050V120 9999 NSC 17/06 Q1026 NOSIG
  • 300900Z AUTO 09006KT 9999 NSC 16/06 Q1026 NOSIG
  • 300830Z AUTO 08007KT 9999 NSC 15/06 Q1026 NOSIG
  • 300800Z AUTO 09008KT 9999 NSC 13/07 Q1026 NOSIG

TAF TAF LFLS
Valide du 30 à 09h jusqu'au 31 à 09h UTC


300800Z 3009/3109 09005KT CAVOK
BECMG 3012/3014 22008KT
ATIS : +33 4 76 65 55 89
Pas de NOTAMs connus pour ce terrain.



MET'MAP, la Météo Aéronautique d'un coup d'oeil ! - Copyright ORBIFLY Décembre 2007 - Disclaimer

ORBIFLY MET'MAP TEAM :

Programmation & Développement : Alexandra Zaïnal
Conception & Développement : Baudouin d'Aumeries
Co-Programmation & Développement : Marc-Olivier Méhu
Soutien technique & logistique : Manuel Goepfert

Contact : metmap@orbifly.com




SOURCES & CREDITS :

   NOAA